Al Rawdah — V7VM8 — position and weather

sailwx.info

Track history (hours):
 
Tides and Currents Weather Stations Pressure Air Temp Water Temp Dewpoint Dewpoint Depression Visibility Wind Speed Wind Dir Waves Ship Positions

Al Rawdah

Last reported at 2015-Mar-14 12:21 UTC. Time now 2015-Mar-30 10:45 UTC.
Position N 31°28' E 032°16'.
Warning: this ship's position is 15 days out of date.

Length 307 m; draft 13.4 m.

Type: Ship (hazmat cat A). MMSI: 538004160.

Date/timePositionNaut miles runAvg speedWind from/ knotsBaromVisibWave heightAir tempDewpointWater temp
2015-Mar-14 12:21N 31°28' E 032°16'1113.0
2015-Mar-14 11:32N 31°36' E 032°07'  
2015-Mar-11 00:15N 37°38' E 012°11'1217.6
2015-Mar-10 23:33N 37°47' E 012°01'1918.3
2015-Mar-10 22:32N 38°03' E 011°48'31418.3
2015-Mar-10 05:22N 43°01' E 009°37'1616.6
2015-Mar-10 04:26N 43°16' E 009°30'1516.9
2015-Mar-10 03:33N 43°30' E 009°23'1717.5
2015-Mar-10 02:33N 43°46' E 009°15'1717.4
2015-Mar-10 01:33N 44°02' E 009°06'1818.1
2015-Mar-10 00:33N 44°19' E 008°58'5 5.2
2015-Mar-09 23:32N 44°24' E 008°55'0 0.0
2015-Mar-09 22:26N 44°24' E 008°55'0 0.0
2015-Mar-09 21:31N 44°24' E 008°55'0 0.0
2015-Mar-09 20:28N 44°24' E 008°55'0 0.0
2015-Mar-09 19:31N 44°24' E 008°55'0 0.0
2015-Mar-09 18:31N 44°24' E 008°55'0 0.1
2015-Mar-09 17:31N 44°24' E 008°55'0 0.1
2015-Mar-09 16:31N 44°24' E 008°55'0 0.0
2015-Mar-09 15:31N 44°24' E 008°55'0 0.0
2015-Mar-09 14:32N 44°24' E 008°55'0 0.0
2015-Mar-09 13:28N 44°24' E 008°55'0 0.0
2015-Mar-09 12:29N 44°24' E 008°55'0 0.0
2015-Mar-09 11:22N 44°24' E 008°55'0 0.0
2015-Mar-09 10:31N 44°24' E 008°55'0 0.0
2015-Mar-09 09:28N 44°24' E 008°55'0 0.0
2015-Mar-09 08:28N 44°24' E 008°55'0 0.0
2015-Mar-09 07:28N 44°24' E 008°55'0 0.0
2015-Mar-09 06:32N 44°24' E 008°55'0 0.0
2015-Mar-09 05:28N 44°24' E 008°55'0 0.0
2015-Mar-09 04:32N 44°24' E 008°55'0 0.0
2015-Mar-09 03:31N 44°24' E 008°55'0 0.0
2015-Mar-09 02:28N 44°24' E 008°55'0 0.0
2015-Mar-09 01:32N 44°24' E 008°55'0 0.0
2015-Mar-09 00:29N 44°24' E 008°55'0 0.0
2015-Mar-08 23:33N 44°24' E 008°55'1 0.6
2015-Mar-08 22:33N 44°24' E 008°55'4 4.3
2015-Mar-08 21:33N 44°21' E 008°59'5 4.6
2015-Mar-08 20:33N 44°16' E 008°59'1 0.8
2015-Mar-08 19:33N 44°16' E 009°00'1 0.6
2015-Mar-08 18:33N 44°16' E 009°01'1 0.6
2015-Mar-08 17:33N 44°17' E 009°02'1 0.6
2015-Mar-08 16:33N 44°17' E 009°02'0 0.3
2015-Mar-08 15:33N 44°17' E 009°02'0 0.4
2015-Mar-08 14:33N 44°17' E 009°02'9 9.4
2015-Mar-08 13:33N 44°09' E 009°08'1212.0
2015-Mar-08 12:33N 43°59' E 009°17'1211.9
2015-Mar-08 11:33N 43°49' E 009°27'1413.7
2015-Mar-08 10:33N 43°38' E 009°37'1312.8
2015-Mar-08 09:33N 43°32' E 009°52'1312.8
2015-Mar-08 08:33N 43°30' E 010°10'8 7.6
2015-Mar-08 07:33N 43°34' E 010°18'0 0.5
2015-Mar-08 06:32N 43°34' E 010°18'0 0.0
2015-Mar-08 05:29N 43°34' E 010°18'0 0.0
2015-Mar-08 04:32N 43°34' E 010°18'0 0.0
2015-Mar-08 03:32N 43°34' E 010°18'0 0.0
2015-Mar-08 02:32N 43°34' E 010°18'0 0.0
2015-Mar-08 01:33N 43°34' E 010°18'0 0.0
2015-Mar-08 00:32N 43°34' E 010°18'0 0.0
2015-Mar-07 23:32N 43°34' E 010°18'0 0.0
2015-Mar-07 22:32N 43°34' E 010°18'0 0.0
2015-Mar-07 21:32N 43°34' E 010°18'0 0.0
2015-Mar-07 20:32N 43°34' E 010°18'0 0.0
2015-Mar-07 19:32N 43°34' E 010°18'0 0.0
2015-Mar-07 18:32N 43°34' E 010°18'0 0.0
2015-Mar-07 17:32N 43°34' E 010°18'0 0.0
2015-Mar-07 16:33N 43°34' E 010°18'3 2.5
2015-Mar-07 15:33N 43°32' E 010°17'5 4.7
2015-Mar-07 14:33N 43°28' E 010°13'0 0.3
2015-Mar-07 13:33N 43°29' E 010°13'0 0.2
2015-Mar-07 12:33N 43°28' E 010°13'1 1.2
2015-Mar-07 11:33N 43°27' E 010°12'1 0.9
2015-Mar-07 10:33N 43°28' E 010°12'2 1.6
2015-Mar-07 09:33N 43°27' E 010°11'1312.7
2015-Mar-07 08:34N 43°31' E 009°54'1615.9
2015-Mar-07 07:34N 43°27' E 009°33'1716.9
2015-Mar-07 06:34N 43°21' E 009°11'1716.8
2015-Mar-07 05:33N 43°15' E 008°50'5217.1
2015-Mar-07 02:30N 42°56' E 007°43'1617.3
2015-Mar-07 01:33N 42°49' E 007°23'1717.2
2015-Mar-07 00:33N 42°43' E 007°01'1717.0
2015-Mar-06 23:33N 42°37' E 006°40'7518.1
2015-Mar-06 19:26N 42°09' E 005°06'1415.3
2015-Mar-06 18:33N 42°04' E 004°49'2018.0
2015-Mar-06 17:25N 41°56' E 004°24'1517.4
2015-Mar-06 16:32N 41°51' E 004°04'1818.0
2015-Mar-06 15:31N 41°44' E 003°42'1818.4
2015-Mar-06 14:31N 41°37' E 003°19'1717.8
2015-Mar-06 13:33N 41°31' E 002°57'1717.3
2015-Mar-06 12:33N 41°24' E 002°36'21 3.4
2015-Mar-06 06:19N 41°19' E 002°09'0 0.0
2015-Mar-06 04:19N 41°19' E 002°09'0 0.0
2015-Mar-06 03:25N 41°19' E 002°09'0 0.0
2015-Mar-06 02:32N 41°19' E 002°09'0 0.0
2015-Mar-06 01:32N 41°19' E 002°09'0 0.0
2015-Mar-06 00:33N 41°19' E 002°09'1 1.3
2015-Mar-05 23:29N 41°18' E 002°11'3 3.4
2015-Mar-05 22:33N 41°15' E 002°13'2 1.5
2015-Mar-05 21:33N 41°15' E 002°15'1 0.5
2015-Mar-05 20:33N 41°15' E 002°16'0 0.3
2015-Mar-05 19:33N 41°15' E 002°16'1 0.9
2015-Mar-05 18:33N 41°15' E 002°15'1 0.8
2015-Mar-05 17:33N 41°15' E 002°14'3 3.3
2015-Mar-05 16:33N 41°14' E 002°09'0 0.3
2015-Mar-05 15:33N 41°14' E 002°09'1 1.0
2015-Mar-05 14:33N 41°13' E 002°09'7 6.9
2015-Mar-05 13:33N 41°08' E 002°03'1212.4
2015-Mar-05 12:33N 40°59' E 001°51'1414.1
2015-Mar-05 11:32N 40°48' E 001°39'1313.3
2015-Mar-05 10:33N 40°38' E 001°27'1313.3
2015-Mar-05 09:33N 40°29' E 001°15'1413.5
2015-Mar-05 08:33N 40°20' E 001°01'6713.3
2015-Mar-05 03:33N 39°35' W 000°02'1313.4
2015-Mar-05 02:33N 39°26' W 000°15'3 3.3
2015-Mar-05 01:31N 39°27' W 000°19'0 0.0
2015-Mar-05 00:31N 39°27' W 000°19'0 0.0
2015-Mar-04 23:31N 39°27' W 000°19'0 0.0
2015-Mar-04 22:31N 39°27' W 000°19'0 0.1
2015-Mar-04 21:28N 39°27' W 000°19'0 0.1
2015-Mar-04 20:31N 39°27' W 000°19'0 0.0
2015-Mar-04 19:31N 39°27' W 000°19'0 0.0
2015-Mar-04 18:31N 39°27' W 000°19'0 0.0
2015-Mar-04 17:31N 39°27' W 000°19'0 0.0
2015-Mar-04 16:31N 39°27' W 000°19'0 0.0
2015-Mar-04 15:31N 39°27' W 000°19'0 0.0
2015-Mar-04 14:31N 39°27' W 000°19'0 0.0
2015-Mar-04 13:28N 39°27' W 000°19'0 0.0
2015-Mar-04 12:31N 39°27' W 000°19'  
Track history (hours):
 
Tides and Currents Weather Stations Pressure Air Temp Water Temp Dewpoint Dewpoint Depression Visibility Wind Speed Wind Dir Waves Ship Positions

Al Rawdah

Last reported at 2015-Mar-14 12:21 UTC. Time now 2015-Mar-30 10:45 UTC.
Position N 31°28' E 032°16'.
Warning: this ship's position is 15 days out of date.

Length 307 m; draft 13.4 m.

Type: Ship (hazmat cat A). MMSI: 538004160.

Date/timePositionNaut miles runAvg speedWind from/ knotsBaromVisibWave heightAir tempDewpointWater temp
2015-Mar-14 12:21N 31°28' E 032°16'1113.0
2015-Mar-14 11:32N 31°36' E 032°07'  
2015-Mar-11 00:15N 37°38' E 012°11'1217.6
2015-Mar-10 23:33N 37°47' E 012°01'1918.3
2015-Mar-10 22:32N 38°03' E 011°48'31418.3
2015-Mar-10 05:22N 43°01' E 009°37'1616.6
2015-Mar-10 04:26N 43°16' E 009°30'1516.9
2015-Mar-10 03:33N 43°30' E 009°23'1717.5
2015-Mar-10 02:33N 43°46' E 009°15'1717.4
2015-Mar-10 01:33N 44°02' E 009°06'1818.1
2015-Mar-10 00:33N 44°19' E 008°58'5 5.2
2015-Mar-09 23:32N 44°24' E 008°55'0 0.0
2015-Mar-09 22:26N 44°24' E 008°55'0 0.0
2015-Mar-09 21:31N 44°24' E 008°55'0 0.0
2015-Mar-09 20:28N 44°24' E 008°55'0 0.0
2015-Mar-09 19:31N 44°24' E 008°55'0 0.0
2015-Mar-09 18:31N 44°24' E 008°55'0 0.1
2015-Mar-09 17:31N 44°24' E 008°55'0 0.1
2015-Mar-09 16:31N 44°24' E 008°55'0 0.0
2015-Mar-09 15:31N 44°24' E 008°55'0 0.0
2015-Mar-09 14:32N 44°24' E 008°55'0 0.0
2015-Mar-09 13:28N 44°24' E 008°55'0 0.0
2015-Mar-09 12:29N 44°24' E 008°55'0 0.0
2015-Mar-09 11:22N 44°24' E 008°55'0 0.0
2015-Mar-09 10:31N 44°24' E 008°55'0 0.0
2015-Mar-09 09:28N 44°24' E 008°55'0 0.0
2015-Mar-09 08:28N 44°24' E 008°55'0 0.0
2015-Mar-09 07:28N 44°24' E 008°55'0 0.0
2015-Mar-09 06:32N 44°24' E 008°55'0 0.0
2015-Mar-09 05:28N 44°24' E 008°55'0 0.0
2015-Mar-09 04:32N 44°24' E 008°55'0 0.0
2015-Mar-09 03:31N 44°24' E 008°55'0 0.0
2015-Mar-09 02:28N 44°24' E 008°55'0 0.0
2015-Mar-09 01:32N 44°24' E 008°55'0 0.0
2015-Mar-09 00:29N 44°24' E 008°55'0 0.0
2015-Mar-08 23:33N 44°24' E 008°55'1 0.6
2015-Mar-08 22:33N 44°24' E 008°55'4 4.3
2015-Mar-08 21:33N 44°21' E 008°59'5 4.6
2015-Mar-08 20:33N 44°16' E 008°59'1 0.8
2015-Mar-08 19:33N 44°16' E 009°00'1 0.6
2015-Mar-08 18:33N 44°16' E 009°01'1 0.6
2015-Mar-08 17:33N 44°17' E 009°02'1 0.6
2015-Mar-08 16:33N 44°17' E 009°02'0 0.3
2015-Mar-08 15:33N 44°17' E 009°02'0 0.4
2015-Mar-08 14:33N 44°17' E 009°02'9 9.4
2015-Mar-08 13:33N 44°09' E 009°08'1212.0
2015-Mar-08 12:33N 43°59' E 009°17'1211.9
2015-Mar-08 11:33N 43°49' E 009°27'1413.7
2015-Mar-08 10:33N 43°38' E 009°37'1312.8
2015-Mar-08 09:33N 43°32' E 009°52'1312.8
2015-Mar-08 08:33N 43°30' E 010°10'8 7.6
2015-Mar-08 07:33N 43°34' E 010°18'0 0.5
2015-Mar-08 06:32N 43°34' E 010°18'0 0.0
2015-Mar-08 05:29N 43°34' E 010°18'0 0.0
2015-Mar-08 04:32N 43°34' E 010°18'0 0.0
2015-Mar-08 03:32N 43°34' E 010°18'0 0.0
2015-Mar-08 02:32N 43°34' E 010°18'0 0.0
2015-Mar-08 01:33N 43°34' E 010°18'0 0.0
2015-Mar-08 00:32N 43°34' E 010°18'0 0.0
2015-Mar-07 23:32N 43°34' E 010°18'0 0.0
2015-Mar-07 22:32N 43°34' E 010°18'0 0.0
2015-Mar-07 21:32N 43°34' E 010°18'0 0.0
2015-Mar-07 20:32N 43°34' E 010°18'0 0.0
2015-Mar-07 19:32N 43°34' E 010°18'0 0.0
2015-Mar-07 18:32N 43°34' E 010°18'0 0.0
2015-Mar-07 17:32N 43°34' E 010°18'0 0.0
2015-Mar-07 16:33N 43°34' E 010°18'3 2.5
2015-Mar-07 15:33N 43°32' E 010°17'5 4.7
2015-Mar-07 14:33N 43°28' E 010°13'0 0.3
2015-Mar-07 13:33N 43°29' E 010°13'0 0.2
2015-Mar-07 12:33N 43°28' E 010°13'1 1.2
2015-Mar-07 11:33N 43°27' E 010°12'1 0.9
2015-Mar-07 10:33N 43°28' E 010°12'2 1.6
2015-Mar-07 09:33N 43°27' E 010°11'1312.7
2015-Mar-07 08:34N 43°31' E 009°54'1615.9
2015-Mar-07 07:34N 43°27' E 009°33'1716.9
2015-Mar-07 06:34N 43°21' E 009°11'1716.8
2015-Mar-07 05:33N 43°15' E 008°50'5217.1
2015-Mar-07 02:30N 42°56' E 007°43'1617.3
2015-Mar-07 01:33N 42°49' E 007°23'1717.2
2015-Mar-07 00:33N 42°43' E 007°01'1717.0
2015-Mar-06 23:33N 42°37' E 006°40'7518.1
2015-Mar-06 19:26N 42°09' E 005°06'1415.3
2015-Mar-06 18:33N 42°04' E 004°49'2018.0
2015-Mar-06 17:25N 41°56' E 004°24'1517.4
2015-Mar-06 16:32N 41°51' E 004°04'1818.0
2015-Mar-06 15:31N 41°44' E 003°42'1818.4
2015-Mar-06 14:31N 41°37' E 003°19'1717.8
2015-Mar-06 13:33N 41°31' E 002°57'1717.3
2015-Mar-06 12:33N 41°24' E 002°36'21 3.4
2015-Mar-06 06:19N 41°19' E 002°09'0 0.0
2015-Mar-06 04:19N 41°19' E 002°09'0 0.0
2015-Mar-06 03:25N 41°19' E 002°09'0 0.0
2015-Mar-06 02:32N 41°19' E 002°09'0 0.0
2015-Mar-06 01:32N 41°19' E 002°09'0 0.0
2015-Mar-06 00:33N 41°19' E 002°09'1 1.3
2015-Mar-05 23:29N 41°18' E 002°11'3 3.4
2015-Mar-05 22:33N 41°15' E 002°13'2 1.5
2015-Mar-05 21:33N 41°15' E 002°15'1 0.5
2015-Mar-05 20:33N 41°15' E 002°16'0 0.3
2015-Mar-05 19:33N 41°15' E 002°16'1 0.9
2015-Mar-05 18:33N 41°15' E 002°15'1 0.8
2015-Mar-05 17:33N 41°15' E 002°14'3 3.3
2015-Mar-05 16:33N 41°14' E 002°09'0 0.3
2015-Mar-05 15:33N 41°14' E 002°09'1 1.0
2015-Mar-05 14:33N 41°13' E 002°09'7 6.9
2015-Mar-05 13:33N 41°08' E 002°03'1212.4
2015-Mar-05 12:33N 40°59' E 001°51'1414.1
2015-Mar-05 11:32N 40°48' E 001°39'1313.3
2015-Mar-05 10:33N 40°38' E 001°27'1313.3
2015-Mar-05 09:33N 40°29' E 001°15'1413.5
2015-Mar-05 08:33N 40°20' E 001°01'6713.3
2015-Mar-05 03:33N 39°35' W 000°02'1313.4
2015-Mar-05 02:33N 39°26' W 000°15'3 3.3
2015-Mar-05 01:31N 39°27' W 000°19'0 0.0
2015-Mar-05 00:31N 39°27' W 000°19'0 0.0
2015-Mar-04 23:31N 39°27' W 000°19'0 0.0
2015-Mar-04 22:31N 39°27' W 000°19'0 0.1
2015-Mar-04 21:28N 39°27' W 000°19'0 0.1
2015-Mar-04 20:31N 39°27' W 000°19'0 0.0
2015-Mar-04 19:31N 39°27' W 000°19'0 0.0
2015-Mar-04 18:31N 39°27' W 000°19'0 0.0
2015-Mar-04 17:31N 39°27' W 000°19'0 0.0
2015-Mar-04 16:31N 39°27' W 000°19'0 0.0
2015-Mar-04 15:31N 39°27' W 000°19'0 0.0
2015-Mar-04 14:31N 39°27' W 000°19'0 0.0
2015-Mar-04 13:28N 39°27' W 000°19'0 0.0
2015-Mar-04 12:31N 39°27' W 000°19'  

Dump ship's entire track history